sensor_id;sensor_type;location;lat;lon;timestamp;P1;durP1;ratioP1;P2;durP2;ratioP2
16770;SDS011;8503;52.472;13.344;2023-03-13T00:01:09;7.25;;;3.80;;
16770;SDS011;8503;52.472;13.344;2023-03-13T00:02:32;13.77;;;4.20;;
16770;SDS011;8503;52.472;13.344;2023-03-13T00:03:56;10.52;;;3.85;;
16770;SDS011;8503;52.472;13.344;2023-03-13T00:05:18;10.80;;;3.40;;
16770;SDS011;8503;52.472;13.344;2023-03-13T00:06:45;7.10;;;3.65;;
16770;SDS011;8503;52.472;13.344;2023-03-13T00:08:08;13.07;;;4.60;;
16770;SDS011;8503;52.472;13.344;2023-03-13T00:09:30;11.38;;;3.72;;
16770;SDS011;8503;52.472;13.344;2023-03-13T00:10:54;10.48;;;4.00;;
16770;SDS011;8503;52.472;13.344;2023-03-13T00:12:19;9.02;;;4.43;;
16770;SDS011;8503;52.472;13.344;2023-03-13T00:13:42;11.25;;;4.00;;
16770;SDS011;8503;52.472;13.344;2023-03-13T00:15:06;10.93;;;3.95;;
16770;SDS011;8503;52.472;13.344;2023-03-13T00:16:29;8.38;;;3.60;;
16770;SDS011;8503;52.472;13.344;2023-03-13T00:17:54;6.88;;;3.97;;
16770;SDS011;8503;52.472;13.344;2023-03-13T00:19:17;10.00;;;4.20;;
16770;SDS011;8503;52.472;13.344;2023-03-13T00:20:40;9.27;;;4.72;;
16770;SDS011;8503;52.472;13.344;2023-03-13T00:22:02;11.85;;;3.92;;
16770;SDS011;8503;52.472;13.344;2023-03-13T00:23:26;9.48;;;3.45;;
16770;SDS011;8503;52.472;13.344;2023-03-13T00:24:49;9.65;;;3.70;;
16770;SDS011;8503;52.472;13.344;2023-03-13T00:26:13;10.82;;;3.88;;
16770;SDS011;8503;52.472;13.344;2023-03-13T00:27:38;5.78;;;3.45;;
16770;SDS011;8503;52.472;13.344;2023-03-13T00:29:01;9.23;;;3.75;;
16770;SDS011;8503;52.472;13.344;2023-03-13T00:30:25;10.30;;;4.03;;
16770;SDS011;8503;52.472;13.344;2023-03-13T00:31:47;11.93;;;4.07;;
16770;SDS011;8503;52.472;13.344;2023-03-13T00:33:17;9.90;;;3.95;;
16770;SDS011;8503;52.472;13.344;2023-03-13T00:34:41;8.35;;;4.55;;
16770;SDS011;8503;52.472;13.344;2023-03-13T00:36:05;16.80;;;4.32;;
16770;SDS011;8503;52.472;13.344;2023-03-13T00:37:30;8.07;;;3.95;;
16770;SDS011;8503;52.472;13.344;2023-03-13T00:38:54;6.35;;;3.78;;
16770;SDS011;8503;52.472;13.344;2023-03-13T00:40:19;7.32;;;3.65;;
16770;SDS011;8503;52.472;13.344;2023-03-13T00:41:42;12.73;;;3.92;;
16770;SDS011;8503;52.472;13.344;2023-03-13T00:43:07;8.45;;;4.07;;
16770;SDS011;8503;52.472;13.344;2023-03-13T00:44:30;15.45;;;4.05;;
16770;SDS011;8503;52.472;13.344;2023-03-13T00:45:54;10.45;;;4.50;;
16770;SDS011;8503;52.472;13.344;2023-03-13T00:47:16;13.68;;;4.45;;
16770;SDS011;8503;52.472;13.344;2023-03-13T00:48:40;9.63;;;4.10;;
16770;SDS011;8503;52.472;13.344;2023-03-13T00:50:02;10.63;;;4.25;;
16770;SDS011;8503;52.472;13.344;2023-03-13T00:51:27;12.63;;;3.75;;
16770;SDS011;8503;52.472;13.344;2023-03-13T00:52:50;12.25;;;4.22;;
16770;SDS011;8503;52.472;13.344;2023-03-13T00:54:13;9.98;;;4.03;;
16770;SDS011;8503;52.472;13.344;2023-03-13T00:55:36;6.65;;;4.05;;
16770;SDS011;8503;52.472;13.344;2023-03-13T00:56:58;12.07;;;4.65;;
16770;SDS011;8503;52.472;13.344;2023-03-13T00:58:24;11.75;;;4.35;;
16770;SDS011;8503;52.472;13.344;2023-03-13T00:59:47;10.75;;;3.90;;
16770;SDS011;8503;52.472;13.344;2023-03-13T01:01:11;10.02;;;4.35;;
16770;SDS011;8503;52.472;13.344;2023-03-13T01:02:39;8.02;;;4.40;;
16770;SDS011;8503;52.472;13.344;2023-03-13T01:04:04;11.00;;;3.92;;
16770;SDS011;8503;52.472;13.344;2023-03-13T01:05:28;11.07;;;4.47;;
16770;SDS011;8503;52.472;13.344;2023-03-13T01:06:51;7.53;;;3.65;;
16770;SDS011;8503;52.472;13.344;2023-03-13T01:08:17;8.10;;;3.95;;
16770;SDS011;8503;52.472;13.344;2023-03-13T01:09:39;14.35;;;4.43;;
16770;SDS011;8503;52.472;13.344;2023-03-13T01:11:03;11.43;;;4.10;;
16770;SDS011;8503;52.472;13.344;2023-03-13T01:12:27;9.32;;;4.18;;
16770;SDS011;8503;52.472;13.344;2023-03-13T01:13:54;12.35;;;4.47;;
16770;SDS011;8503;52.472;13.344;2023-03-13T01:15:18;8.00;;;3.72;;
16770;SDS011;8503;52.472;13.344;2023-03-13T01:16:41;13.55;;;4.47;;
16770;SDS011;8503;52.472;13.344;2023-03-13T01:18:05;9.65;;;3.55;;
16770;SDS011;8503;52.472;13.344;2023-03-13T01:19:27;10.63;;;3.90;;
16770;SDS011;8503;52.472;13.344;2023-03-13T01:20:51;16.40;;;5.05;;
16770;SDS011;8503;52.472;13.344;2023-03-13T01:22:14;8.55;;;3.90;;
16770;SDS011;8503;52.472;13.344;2023-03-13T01:23:37;15.18;;;4.93;;
16770;SDS011;8503;52.472;13.344;2023-03-13T01:24:59;9.38;;;4.40;;
16770;SDS011;8503;52.472;13.344;2023-03-13T01:26:23;11.20;;;3.95;;
16770;SDS011;8503;52.472;13.344;2023-03-13T01:27:46;11.75;;;4.65;;
16770;SDS011;8503;52.472;13.344;2023-03-13T01:29:11;9.93;;;4.10;;
16770;SDS011;8503;52.472;13.344;2023-03-13T01:30:34;12.07;;;4.90;;
16770;SDS011;8503;52.472;13.344;2023-03-13T01:31:57;10.82;;;4.60;;
16770;SDS011;8503;52.472;13.344;2023-03-13T01:33:20;10.98;;;4.28;;
16770;SDS011;8503;52.472;13.344;2023-03-13T01:34:43;8.30;;;3.63;;
16770;SDS011;8503;52.472;13.344;2023-03-13T01:36:10;10.43;;;4.03;;
16770;SDS011;8503;52.472;13.344;2023-03-13T01:37:33;12.73;;;4.65;;
16770;SDS011;8503;52.472;13.344;2023-03-13T01:38:57;8.88;;;3.80;;
16770;SDS011;8503;52.472;13.344;2023-03-13T01:40:21;9.88;;;3.90;;
16770;SDS011;8503;52.472;13.344;2023-03-13T01:41:46;11.88;;;4.28;;
16770;SDS011;8503;52.472;13.344;2023-03-13T01:43:16;13.48;;;4.53;;
16770;SDS011;8503;52.472;13.344;2023-03-13T01:44:50;16.52;;;5.00;;
16770;SDS011;8503;52.472;13.344;2023-03-13T01:46:14;12.02;;;4.30;;
16770;SDS011;8503;52.472;13.344;2023-03-13T01:47:38;7.95;;;4.20;;
16770;SDS011;8503;52.472;13.344;2023-03-13T01:49:04;9.93;;;4.30;;
16770;SDS011;8503;52.472;13.344;2023-03-13T01:50:30;10.27;;;4.28;;
16770;SDS011;8503;52.472;13.344;2023-03-13T01:51:54;5.78;;;3.72;;
16770;SDS011;8503;52.472;13.344;2023-03-13T01:53:19;8.52;;;3.90;;
16770;SDS011;8503;52.472;13.344;2023-03-13T01:54:42;8.85;;;4.03;;
16770;SDS011;8503;52.472;13.344;2023-03-13T01:56:09;14.48;;;4.65;;
16770;SDS011;8503;52.472;13.344;2023-03-13T01:57:34;8.13;;;4.47;;
16770;SDS011;8503;52.472;13.344;2023-03-13T01:58:59;9.13;;;3.88;;
16770;SDS011;8503;52.472;13.344;2023-03-13T02:00:25;8.75;;;3.47;;
16770;SDS011;8503;52.472;13.344;2023-03-13T02:01:50;15.45;;;4.28;;
16770;SDS011;8503;52.472;13.344;2023-03-13T02:03:19;8.48;;;3.60;;
16770;SDS011;8503;52.472;13.344;2023-03-13T02:04:43;10.65;;;3.97;;
16770;SDS011;8503;52.472;13.344;2023-03-13T02:06:08;13.90;;;4.35;;
16770;SDS011;8503;52.472;13.344;2023-03-13T02:07:32;11.63;;;4.35;;
16770;SDS011;8503;52.472;13.344;2023-03-13T02:08:59;11.60;;;4.38;;
16770;SDS011;8503;52.472;13.344;2023-03-13T02:10:30;10.82;;;4.38;;
16770;SDS011;8503;52.472;13.344;2023-03-13T02:11:58;5.93;;;3.67;;
16770;SDS011;8503;52.472;13.344;2023-03-13T02:13:24;7.60;;;3.17;;
16770;SDS011;8503;52.472;13.344;2023-03-13T02:14:46;7.32;;;3.63;;
16770;SDS011;8503;52.472;13.344;2023-03-13T02:16:15;8.10;;;4.35;;
16770;SDS011;8503;52.472;13.344;2023-03-13T02:17:38;10.73;;;3.72;;
16770;SDS011;8503;52.472;13.344;2023-03-13T02:19:02;10.45;;;3.47;;
16770;SDS011;8503;52.472;13.344;2023-03-13T02:20:28;10.98;;;3.60;;
16770;SDS011;8503;52.472;13.344;2023-03-13T02:21:52;8.18;;;3.63;;
16770;SDS011;8503;52.472;13.344;2023-03-13T02:23:21;10.68;;;4.20;;
16770;SDS011;8503;52.472;13.344;2023-03-13T02:24:50;9.52;;;3.90;;
16770;SDS011;8503;52.472;13.344;2023-03-13T02:26:19;9.13;;;3.30;;
16770;SDS011;8503;52.472;13.344;2023-03-13T02:27:42;15.80;;;4.22;;
16770;SDS011;8503;52.472;13.344;2023-03-13T02:29:07;12.00;;;4.18;;
16770;SDS011;8503;52.472;13.344;2023-03-13T02:30:38;11.88;;;3.60;;
16770;SDS011;8503;52.472;13.344;2023-03-13T02:32:04;16.45;;;3.33;;
16770;SDS011;8503;52.472;13.344;2023-03-13T02:33:29;12.35;;;3.55;;
16770;SDS011;8503;52.472;13.344;2023-03-13T02:34:55;12.77;;;3.83;;
16770;SDS011;8503;52.472;13.344;2023-03-13T02:36:19;12.38;;;3.97;;
16770;SDS011;8503;52.472;13.344;2023-03-13T02:37:43;7.95;;;3.10;;
16770;SDS011;8503;52.472;13.344;2023-03-13T02:39:08;10.02;;;3.15;;
16770;SDS011;8503;52.472;13.344;2023-03-13T02:40:32;9.65;;;2.97;;
16770;SDS011;8503;52.472;13.344;2023-03-13T02:41:57;10.00;;;3.45;;
16770;SDS011;8503;52.472;13.344;2023-03-13T02:43:23;10.88;;;3.63;;
16770;SDS011;8503;52.472;13.344;2023-03-13T02:44:50;9.75;;;3.58;;
16770;SDS011;8503;52.472;13.344;2023-03-13T02:46:15;13.35;;;3.35;;
16770;SDS011;8503;52.472;13.344;2023-03-13T02:47:39;8.70;;;3.17;;
16770;SDS011;8503;52.472;13.344;2023-03-13T02:49:09;13.57;;;3.55;;
16770;SDS011;8503;52.472;13.344;2023-03-13T02:50:43;13.18;;;3.75;;
16770;SDS011;8503;52.472;13.344;2023-03-13T02:52:09;5.80;;;3.03;;
16770;SDS011;8503;52.472;13.344;2023-03-13T02:53:35;13.60;;;3.97;;
16770;SDS011;8503;52.472;13.344;2023-03-13T02:54:59;13.73;;;4.25;;
16770;SDS011;8503;52.472;13.344;2023-03-13T02:56:24;12.38;;;3.42;;
16770;SDS011;8503;52.472;13.344;2023-03-13T02:57:49;12.18;;;3.00;;
16770;SDS011;8503;52.472;13.344;2023-03-13T02:59:12;9.07;;;3.55;;
16770;SDS011;8503;52.472;13.344;2023-03-13T03:00:36;12.55;;;3.33;;
16770;SDS011;8503;52.472;13.344;2023-03-13T03:01:59;17.05;;;3.33;;
16770;SDS011;8503;52.472;13.344;2023-03-13T03:03:22;13.32;;;3.25;;
16770;SDS011;8503;52.472;13.344;2023-03-13T03:04:45;9.77;;;3.42;;
16770;SDS011;8503;52.472;13.344;2023-03-13T03:06:09;7.20;;;3.28;;
16770;SDS011;8503;52.472;13.344;2023-03-13T03:07:31;11.25;;;2.75;;
16770;SDS011;8503;52.472;13.344;2023-03-13T03:08:54;9.88;;;2.85;;
16770;SDS011;8503;52.472;13.344;2023-03-13T03:10:18;16.05;;;3.35;;
16770;SDS011;8503;52.472;13.344;2023-03-13T03:11:41;10.45;;;2.97;;
16770;SDS011;8503;52.472;13.344;2023-03-13T03:13:06;11.30;;;2.90;;
16770;SDS011;8503;52.472;13.344;2023-03-13T03:14:29;9.43;;;3.60;;
16770;SDS011;8503;52.472;13.344;2023-03-13T03:15:53;9.60;;;3.15;;
16770;SDS011;8503;52.472;13.344;2023-03-13T03:17:15;11.57;;;2.97;;
16770;SDS011;8503;52.472;13.344;2023-03-13T03:18:38;8.70;;;2.88;;
16770;SDS011;8503;52.472;13.344;2023-03-13T03:20:01;10.60;;;3.05;;
16770;SDS011;8503;52.472;13.344;2023-03-13T03:21:28;16.02;;;3.08;;
16770;SDS011;8503;52.472;13.344;2023-03-13T03:22:50;14.55;;;2.85;;
16770;SDS011;8503;52.472;13.344;2023-03-13T03:24:15;14.75;;;3.78;;
16770;SDS011;8503;52.472;13.344;2023-03-13T03:25:38;14.88;;;3.08;;
16770;SDS011;8503;52.472;13.344;2023-03-13T03:27:01;7.38;;;2.53;;
16770;SDS011;8503;52.472;13.344;2023-03-13T03:28:26;9.98;;;3.53;;
16770;SDS011;8503;52.472;13.344;2023-03-13T03:29:49;8.75;;;3.00;;
16770;SDS011;8503;52.472;13.344;2023-03-13T03:31:13;10.50;;;3.25;;
16770;SDS011;8503;52.472;13.344;2023-03-13T03:32:36;12.27;;;2.75;;
16770;SDS011;8503;52.472;13.344;2023-03-13T03:33:59;13.05;;;3.58;;
16770;SDS011;8503;52.472;13.344;2023-03-13T03:35:23;8.45;;;2.92;;
16770;SDS011;8503;52.472;13.344;2023-03-13T03:36:45;8.38;;;2.95;;
16770;SDS011;8503;52.472;13.344;2023-03-13T03:38:09;8.80;;;2.80;;
16770;SDS011;8503;52.472;13.344;2023-03-13T03:39:31;9.25;;;2.88;;
16770;SDS011;8503;52.472;13.344;2023-03-13T03:40:54;14.65;;;3.42;;
16770;SDS011;8503;52.472;13.344;2023-03-13T03:42:18;7.93;;;3.00;;
16770;SDS011;8503;52.472;13.344;2023-03-13T03:43:43;11.45;;;3.22;;
16770;SDS011;8503;52.472;13.344;2023-03-13T03:45:05;13.32;;;3.40;;
16770;SDS011;8503;52.472;13.344;2023-03-13T03:46:31;13.20;;;3.20;;
16770;SDS011;8503;52.472;13.344;2023-03-13T03:47:54;4.60;;;2.15;;
16770;SDS011;8503;52.472;13.344;2023-03-13T03:49:19;9.68;;;2.90;;
16770;SDS011;8503;52.472;13.344;2023-03-13T03:50:43;10.32;;;3.78;;
16770;SDS011;8503;52.472;13.344;2023-03-13T03:52:07;11.75;;;3.70;;
16770;SDS011;8503;52.472;13.344;2023-03-13T03:53:30;8.15;;;3.08;;
16770;SDS011;8503;52.472;13.344;2023-03-13T03:54:53;10.30;;;3.20;;
16770;SDS011;8503;52.472;13.344;2023-03-13T03:56:16;11.80;;;3.45;;
16770;SDS011;8503;52.472;13.344;2023-03-13T03:57:40;9.98;;;2.80;;
16770;SDS011;8503;52.472;13.344;2023-03-13T03:59:04;10.27;;;2.80;;
16770;SDS011;8503;52.472;13.344;2023-03-13T04:00:27;9.95;;;3.15;;
16770;SDS011;8503;52.472;13.344;2023-03-13T04:01:51;12.20;;;3.05;;
16770;SDS011;8503;52.472;13.344;2023-03-13T04:03:13;7.70;;;2.58;;
16770;SDS011;8503;52.472;13.344;2023-03-13T04:04:37;10.82;;;2.90;;
16770;SDS011;8503;52.472;13.344;2023-03-13T04:05:59;8.77;;;3.05;;
16770;SDS011;8503;52.472;13.344;2023-03-13T04:07:23;6.22;;;2.75;;
16770;SDS011;8503;52.472;13.344;2023-03-13T04:08:46;13.00;;;3.15;;
16770;SDS011;8503;52.472;13.344;2023-03-13T04:10:10;12.75;;;3.97;;
16770;SDS011;8503;52.472;13.344;2023-03-13T04:11:33;8.60;;;2.67;;
16770;SDS011;8503;52.472;13.344;2023-03-13T04:12:57;9.80;;;2.80;;
16770;SDS011;8503;52.472;13.344;2023-03-13T04:14:21;12.32;;;2.40;;
16770;SDS011;8503;52.472;13.344;2023-03-13T04:15:45;13.98;;;3.20;;
16770;SDS011;8503;52.472;13.344;2023-03-13T04:17:09;13.63;;;2.70;;
16770;SDS011;8503;52.472;13.344;2023-03-13T04:18:31;11.02;;;2.42;;
16770;SDS011;8503;52.472;13.344;2023-03-13T04:19:54;9.63;;;2.15;;
16770;SDS011;8503;52.472;13.344;2023-03-13T04:21:17;11.68;;;2.72;;
16770;SDS011;8503;52.472;13.344;2023-03-13T04:22:40;14.23;;;2.95;;
16770;SDS011;8503;52.472;13.344;2023-03-13T04:24:05;13.88;;;3.22;;
16770;SDS011;8503;52.472;13.344;2023-03-13T04:25:28;11.82;;;3.17;;
16770;SDS011;8503;52.472;13.344;2023-03-13T04:26:51;17.23;;;2.85;;
16770;SDS011;8503;52.472;13.344;2023-03-13T04:28:14;6.60;;;2.40;;
16770;SDS011;8503;52.472;13.344;2023-03-13T04:29:38;17.25;;;2.35;;
16770;SDS011;8503;52.472;13.344;2023-03-13T04:31:01;15.25;;;3.10;;
16770;SDS011;8503;52.472;13.344;2023-03-13T04:32:25;15.27;;;2.50;;
16770;SDS011;8503;52.472;13.344;2023-03-13T04:33:48;8.82;;;2.58;;
16770;SDS011;8503;52.472;13.344;2023-03-13T04:35:12;11.98;;;2.92;;
16770;SDS011;8503;52.472;13.344;2023-03-13T04:36:36;16.63;;;2.92;;
16770;SDS011;8503;52.472;13.344;2023-03-13T04:37:59;15.95;;;2.65;;
16770;SDS011;8503;52.472;13.344;2023-03-13T04:39:23;14.13;;;2.80;;
16770;SDS011;8503;52.472;13.344;2023-03-13T04:40:45;11.43;;;3.53;;
16770;SDS011;8503;52.472;13.344;2023-03-13T04:42:09;16.80;;;3.10;;
16770;SDS011;8503;52.472;13.344;2023-03-13T04:43:33;7.97;;;2.17;;
16770;SDS011;8503;52.472;13.344;2023-03-13T04:44:58;14.85;;;2.50;;
16770;SDS011;8503;52.472;13.344;2023-03-13T04:46:20;13.13;;;3.38;;
16770;SDS011;8503;52.472;13.344;2023-03-13T04:47:45;13.95;;;3.42;;
16770;SDS011;8503;52.472;13.344;2023-03-13T04:49:08;17.48;;;2.67;;
16770;SDS011;8503;52.472;13.344;2023-03-13T04:50:32;9.27;;;2.65;;
16770;SDS011;8503;52.472;13.344;2023-03-13T04:51:55;9.02;;;2.67;;
16770;SDS011;8503;52.472;13.344;2023-03-13T04:53:19;9.23;;;2.53;;
16770;SDS011;8503;52.472;13.344;2023-03-13T04:54:42;12.52;;;3.05;;
16770;SDS011;8503;52.472;13.344;2023-03-13T04:56:06;17.55;;;2.83;;
16770;SDS011;8503;52.472;13.344;2023-03-13T04:57:29;10.48;;;2.40;;
16770;SDS011;8503;52.472;13.344;2023-03-13T04:58:52;11.32;;;3.20;;
16770;SDS011;8503;52.472;13.344;2023-03-13T05:00:17;8.02;;;2.40;;
16770;SDS011;8503;52.472;13.344;2023-03-13T05:01:41;8.05;;;2.60;;
16770;SDS011;8503;52.472;13.344;2023-03-13T05:03:03;11.30;;;3.00;;
16770;SDS011;8503;52.472;13.344;2023-03-13T05:04:28;8.48;;;2.90;;
16770;SDS011;8503;52.472;13.344;2023-03-13T05:05:51;16.20;;;2.97;;
16770;SDS011;8503;52.472;13.344;2023-03-13T05:07:15;8.00;;;2.15;;
16770;SDS011;8503;52.472;13.344;2023-03-13T05:08:37;19.55;;;3.25;;
16770;SDS011;8503;52.472;13.344;2023-03-13T05:10:01;9.07;;;2.47;;
16770;SDS011;8503;52.472;13.344;2023-03-13T05:11:24;16.73;;;3.28;;
16770;SDS011;8503;52.472;13.344;2023-03-13T05:12:48;10.20;;;2.90;;
16770;SDS011;8503;52.472;13.344;2023-03-13T05:14:11;12.77;;;2.78;;
16770;SDS011;8503;52.472;13.344;2023-03-13T05:15:36;10.77;;;2.38;;
16770;SDS011;8503;52.472;13.344;2023-03-13T05:16:59;14.68;;;2.95;;
16770;SDS011;8503;52.472;13.344;2023-03-13T05:18:22;15.85;;;2.40;;
16770;SDS011;8503;52.472;13.344;2023-03-13T05:19:45;13.90;;;3.25;;
16770;SDS011;8503;52.472;13.344;2023-03-13T05:21:09;12.75;;;2.75;;
16770;SDS011;8503;52.472;13.344;2023-03-13T05:22:31;12.68;;;2.67;;
16770;SDS011;8503;52.472;13.344;2023-03-13T05:23:54;13.88;;;3.35;;
16770;SDS011;8503;52.472;13.344;2023-03-13T05:25:18;17.42;;;3.35;;
16770;SDS011;8503;52.472;13.344;2023-03-13T05:26:42;12.98;;;2.60;;
16770;SDS011;8503;52.472;13.344;2023-03-13T05:28:04;17.15;;;2.92;;
16770;SDS011;8503;52.472;13.344;2023-03-13T05:29:27;12.52;;;2.78;;
16770;SDS011;8503;52.472;13.344;2023-03-13T05:30:51;14.52;;;3.10;;
16770;SDS011;8503;52.472;13.344;2023-03-13T05:32:15;17.10;;;3.03;;
16770;SDS011;8503;52.472;13.344;2023-03-13T05:33:38;11.30;;;2.67;;
16770;SDS011;8503;52.472;13.344;2023-03-13T05:35:01;13.60;;;2.88;;
16770;SDS011;8503;52.472;13.344;2023-03-13T05:36:24;15.25;;;3.08;;
16770;SDS011;8503;52.472;13.344;2023-03-13T05:37:49;13.82;;;2.95;;
16770;SDS011;8503;52.472;13.344;2023-03-13T05:39:13;16.48;;;3.10;;
16770;SDS011;8503;52.472;13.344;2023-03-13T05:40:36;13.93;;;2.92;;
16770;SDS011;8503;52.472;13.344;2023-03-13T05:42:00;19.33;;;4.00;;
16770;SDS011;8503;52.472;13.344;2023-03-13T05:43:23;11.82;;;3.05;;
16770;SDS011;8503;52.472;13.344;2023-03-13T05:44:47;14.07;;;3.10;;
16770;SDS011;8503;52.472;13.344;2023-03-13T05:46:11;13.02;;;2.75;;
16770;SDS011;8503;52.472;13.344;2023-03-13T05:47:35;11.88;;;3.00;;
16770;SDS011;8503;52.472;13.344;2023-03-13T05:48:59;15.18;;;3.35;;
16770;SDS011;8503;52.472;13.344;2023-03-13T05:50:23;7.88;;;2.63;;
16770;SDS011;8503;52.472;13.344;2023-03-13T05:51:45;11.35;;;3.00;;
16770;SDS011;8503;52.472;13.344;2023-03-13T05:53:09;14.30;;;3.20;;
16770;SDS011;8503;52.472;13.344;2023-03-13T05:54:32;14.05;;;2.75;;
16770;SDS011;8503;52.472;13.344;2023-03-13T05:55:55;12.02;;;2.70;;
16770;SDS011;8503;52.472;13.344;2023-03-13T05:57:18;13.27;;;2.83;;
16770;SDS011;8503;52.472;13.344;2023-03-13T05:58:41;16.88;;;3.22;;
16770;SDS011;8503;52.472;13.344;2023-03-13T06:00:04;15.82;;;3.30;;
16770;SDS011;8503;52.472;13.344;2023-03-13T06:01:29;18.73;;;2.80;;
16770;SDS011;8503;52.472;13.344;2023-03-13T06:02:53;10.05;;;2.17;;
16770;SDS011;8503;52.472;13.344;2023-03-13T06:04:16;10.93;;;3.22;;
16770;SDS011;8503;52.472;13.344;2023-03-13T06:05:39;16.27;;;3.33;;
16770;SDS011;8503;52.472;13.344;2023-03-13T06:07:02;12.00;;;2.70;;
16770;SDS011;8503;52.472;13.344;2023-03-13T06:08:25;10.90;;;2.97;;
16770;SDS011;8503;52.472;13.344;2023-03-13T06:09:49;14.65;;;2.80;;
16770;SDS011;8503;52.472;13.344;2023-03-13T06:11:13;10.75;;;2.83;;
16770;SDS011;8503;52.472;13.344;2023-03-13T06:12:36;15.75;;;3.78;;
16770;SDS011;8503;52.472;13.344;2023-03-13T06:14:00;16.42;;;2.95;;
16770;SDS011;8503;52.472;13.344;2023-03-13T06:15:26;16.20;;;3.53;;
16770;SDS011;8503;52.472;13.344;2023-03-13T06:16:51;14.50;;;2.88;;
16770;SDS011;8503;52.472;13.344;2023-03-13T06:18:16;11.48;;;2.63;;
16770;SDS011;8503;52.472;13.344;2023-03-13T06:19:39;12.35;;;2.50;;
16770;SDS011;8503;52.472;13.344;2023-03-13T06:21:02;12.70;;;2.83;;
16770;SDS011;8503;52.472;13.344;2023-03-13T06:22:26;18.67;;;3.35;;
16770;SDS011;8503;52.472;13.344;2023-03-13T06:23:50;21.15;;;3.47;;
16770;SDS011;8503;52.472;13.344;2023-03-13T06:25:15;11.43;;;2.78;;
16770;SDS011;8503;52.472;13.344;2023-03-13T06:26:38;15.88;;;3.83;;
16770;SDS011;8503;52.472;13.344;2023-03-13T06:28:02;11.00;;;2.88;;
16770;SDS011;8503;52.472;13.344;2023-03-13T06:29:26;12.05;;;2.50;;
16770;SDS011;8503;52.472;13.344;2023-03-13T06:30:49;13.90;;;3.05;;
16770;SDS011;8503;52.472;13.344;2023-03-13T06:32:14;10.63;;;2.80;;
16770;SDS011;8503;52.472;13.344;2023-03-13T06:33:38;11.60;;;2.85;;
16770;SDS011;8503;52.472;13.344;2023-03-13T06:35:01;12.07;;;3.53;;
16770;SDS011;8503;52.472;13.344;2023-03-13T06:36:25;12.27;;;3.35;;
16770;SDS011;8503;52.472;13.344;2023-03-13T06:37:48;15.65;;;3.03;;
16770;SDS011;8503;52.472;13.344;2023-03-13T06:39:12;15.85;;;2.90;;
16770;SDS011;8503;52.472;13.344;2023-03-13T06:40:35;12.15;;;3.28;;
16770;SDS011;8503;52.472;13.344;2023-03-13T06:41:59;15.02;;;3.05;;
16770;SDS011;8503;52.472;13.344;2023-03-13T06:43:22;17.65;;;3.20;;
16770;SDS011;8503;52.472;13.344;2023-03-13T06:44:48;20.45;;;3.60;;
16770;SDS011;8503;52.472;13.344;2023-03-13T06:46:14;13.07;;;3.05;;
16770;SDS011;8503;52.472;13.344;2023-03-13T06:47:42;14.63;;;3.00;;
16770;SDS011;8503;52.472;13.344;2023-03-13T06:49:05;14.07;;;3.15;;
16770;SDS011;8503;52.472;13.344;2023-03-13T06:50:29;14.57;;;3.25;;
16770;SDS011;8503;52.472;13.344;2023-03-13T06:51:55;12.20;;;3.10;;
16770;SDS011;8503;52.472;13.344;2023-03-13T06:53:19;16.45;;;3.40;;
16770;SDS011;8503;52.472;13.344;2023-03-13T06:54:43;17.63;;;3.08;;
16770;SDS011;8503;52.472;13.344;2023-03-13T06:56:07;9.10;;;2.83;;
16770;SDS011;8503;52.472;13.344;2023-03-13T06:57:30;16.77;;;3.33;;
16770;SDS011;8503;52.472;13.344;2023-03-13T06:58:54;12.45;;;3.25;;
16770;SDS011;8503;52.472;13.344;2023-03-13T07:00:20;13.55;;;4.18;;
16770;SDS011;8503;52.472;13.344;2023-03-13T07:01:44;12.13;;;3.05;;
16770;SDS011;8503;52.472;13.344;2023-03-13T07:03:09;9.85;;;3.13;;
16770;SDS011;8503;52.472;13.344;2023-03-13T07:04:34;12.80;;;3.25;;
16770;SDS011;8503;52.472;13.344;2023-03-13T07:05:58;18.58;;;3.45;;
16770;SDS011;8503;52.472;13.344;2023-03-13T07:07:21;18.92;;;3.70;;
16770;SDS011;8503;52.472;13.344;2023-03-13T07:08:52;16.10;;;3.10;;
16770;SDS011;8503;52.472;13.344;2023-03-13T07:10:16;13.30;;;3.08;;
16770;SDS011;8503;52.472;13.344;2023-03-13T07:11:39;10.13;;;2.85;;
16770;SDS011;8503;52.472;13.344;2023-03-13T07:13:02;14.10;;;2.40;;
16770;SDS011;8503;52.472;13.344;2023-03-13T07:14:26;12.85;;;2.92;;
16770;SDS011;8503;52.472;13.344;2023-03-13T07:15:49;18.33;;;3.63;;
16770;SDS011;8503;52.472;13.344;2023-03-13T07:17:13;13.82;;;3.40;;
16770;SDS011;8503;52.472;13.344;2023-03-13T07:18:41;14.95;;;2.92;;
16770;SDS011;8503;52.472;13.344;2023-03-13T07:20:06;7.05;;;2.22;;
16770;SDS011;8503;52.472;13.344;2023-03-13T07:21:31;20.95;;;3.30;;
16770;SDS011;8503;52.472;13.344;2023-03-13T07:22:54;7.30;;;2.15;;
16770;SDS011;8503;52.472;13.344;2023-03-13T07:24:18;20.63;;;3.35;;
16770;SDS011;8503;52.472;13.344;2023-03-13T07:25:41;13.65;;;2.65;;
16770;SDS011;8503;52.472;13.344;2023-03-13T07:27:04;12.65;;;2.90;;
16770;SDS011;8503;52.472;13.344;2023-03-13T07:28:29;14.15;;;3.00;;
16770;SDS011;8503;52.472;13.344;2023-03-13T07:29:54;21.00;;;3.70;;
16770;SDS011;8503;52.472;13.344;2023-03-13T07:31:18;16.63;;;3.00;;
16770;SDS011;8503;52.472;13.344;2023-03-13T07:32:44;16.27;;;2.88;;
16770;SDS011;8503;52.472;13.344;2023-03-13T07:34:08;12.23;;;2.83;;
16770;SDS011;8503;52.472;13.344;2023-03-13T07:35:31;12.35;;;2.72;;
16770;SDS011;8503;52.472;13.344;2023-03-13T07:36:55;9.48;;;2.90;;
16770;SDS011;8503;52.472;13.344;2023-03-13T07:38:18;11.88;;;2.88;;
16770;SDS011;8503;52.472;13.344;2023-03-13T07:39:42;15.70;;;3.25;;
16770;SDS011;8503;52.472;13.344;2023-03-13T07:41:05;7.72;;;2.22;;
16770;SDS011;8503;52.472;13.344;2023-03-13T07:42:29;18.80;;;3.92;;
16770;SDS011;8503;52.472;13.344;2023-03-13T07:43:52;10.43;;;2.75;;
16770;SDS011;8503;52.472;13.344;2023-03-13T07:45:16;14.18;;;2.80;;
16770;SDS011;8503;52.472;13.344;2023-03-13T07:46:39;14.55;;;2.90;;
16770;SDS011;8503;52.472;13.344;2023-03-13T07:48:03;9.98;;;2.67;;
16770;SDS011;8503;52.472;13.344;2023-03-13T07:49:28;11.45;;;2.70;;
16770;SDS011;8503;52.472;13.344;2023-03-13T07:50:52;7.15;;;2.08;;
16770;SDS011;8503;52.472;13.344;2023-03-13T07:52:17;12.07;;;3.28;;
16770;SDS011;8503;52.472;13.344;2023-03-13T07:53:41;13.38;;;3.15;;
16770;SDS011;8503;52.472;13.344;2023-03-13T07:55:04;11.93;;;2.55;;
16770;SDS011;8503;52.472;13.344;2023-03-13T07:56:28;13.38;;;3.03;;
16770;SDS011;8503;52.472;13.344;2023-03-13T07:57:53;7.80;;;2.20;;
16770;SDS011;8503;52.472;13.344;2023-03-13T07:59:16;11.10;;;3.35;;
16770;SDS011;8503;52.472;13.344;2023-03-13T08:00:39;13.15;;;2.60;;
16770;SDS011;8503;52.472;13.344;2023-03-13T08:02:02;14.63;;;2.38;;
16770;SDS011;8503;52.472;13.344;2023-03-13T08:03:26;13.95;;;3.20;;
16770;SDS011;8503;52.472;13.344;2023-03-13T08:04:52;11.88;;;2.75;;
16770;SDS011;8503;52.472;13.344;2023-03-13T08:06:19;11.98;;;2.80;;
16770;SDS011;8503;52.472;13.344;2023-03-13T08:07:44;12.90;;;3.30;;
16770;SDS011;8503;52.472;13.344;2023-03-13T08:09:08;13.60;;;2.72;;
16770;SDS011;8503;52.472;13.344;2023-03-13T08:10:31;8.73;;;2.55;;
16770;SDS011;8503;52.472;13.344;2023-03-13T08:11:55;8.23;;;2.40;;
16770;SDS011;8503;52.472;13.344;2023-03-13T08:13:18;14.05;;;2.28;;
16770;SDS011;8503;52.472;13.344;2023-03-13T08:14:41;15.95;;;3.03;;
16770;SDS011;8503;52.472;13.344;2023-03-13T08:16:05;14.57;;;2.65;;
16770;SDS011;8503;52.472;13.344;2023-03-13T08:17:30;14.43;;;2.80;;
16770;SDS011;8503;52.472;13.344;2023-03-13T08:18:54;12.20;;;2.53;;
16770;SDS011;8503;52.472;13.344;2023-03-13T08:20:20;15.25;;;3.90;;
16770;SDS011;8503;52.472;13.344;2023-03-13T08:21:43;11.50;;;3.25;;